Portada
METAR-TAF:

METAR-TAF

Aeroports :

Aeroport de Bata

Bata, Guinea Equatorial

latitud: 1-54-15N, longitud: 9-48-15E, altitud: 4 m

METAR: manca

Hora: 08:18 (07:18 UTC)

Pronòstic

L'informe es va fer fa 2 hores i 18 minuts, a les 05:00 UTC
Pronòstic vàlid del 20 a les 06 UTC al 21 a les 06 UTC
Vent 5 kt del Sud-Oest
Visibilitat 10 km o més
Núvols disperses a una alçada de 1000 ft
Probabilitat 40% :
Temporalment
l' 20 a les 14 UTC al 20 a les 18 UTC
Cel ennuvolat a una alçada de 1000 ft
Escasses núvols a una alçada de 1800 ft, Cumulonimbus.
tempesta

TAF: FGBT 200500Z 2006/2106 22005KT 9999 SCT010 PROB40 TEMPO 2014/2018 TS BKN010 FEW018CB

Observacions i pronòstics meteorològics de més de 4000 aeroports (METAR i TAF).

Les estacions disponibles són els punts grocs i vermells al mapa.

Posi el ratolí al punt desitjat per veure el nom de l'estació.

Feu clic per veure les observacions i els pronòstics meteorològics.

Per canviar el mapa: feu clic els botons verds amb una creu de color negre per apropar; al botó verd amb un guió per allunyar la imatge; o en les fletxes verdes per a mapes adjacents.


METAR-TAF: